createdAt,value
2022-10-05T00:00:06.368Z,4.20
2022-10-05T00:03:11.775Z,4.50
2022-10-05T00:06:13.184Z,4.30
2022-10-05T00:09:20.937Z,4.37
2022-10-05T00:12:22.887Z,3.77
2022-10-05T00:15:24.377Z,3.63
2022-10-05T00:18:26.949Z,4.27
2022-10-05T00:21:29.000Z,4.27
2022-10-05T00:24:30.398Z,4.03
2022-10-05T00:27:35.038Z,4.30
2022-10-05T00:30:36.490Z,4.10
2022-10-05T00:33:37.899Z,4.27
2022-10-05T00:36:40.115Z,4.40
2022-10-05T00:39:42.490Z,4.57
2022-10-05T00:43:10.274Z,3.90
2022-10-05T00:46:23.903Z,4.10
2022-10-05T00:49:25.350Z,4.17
2022-10-05T00:53:17.212Z,4.60
2022-10-05T00:56:36.522Z,4.50
2022-10-05T00:59:47.288Z,4.30
2022-10-05T01:03:05.156Z,4.50
2022-10-05T01:06:34.800Z,4.00
2022-10-05T01:10:05.627Z,4.30
2022-10-05T01:13:32.748Z,3.87
2022-10-05T01:16:59.906Z,4.40
2022-10-05T01:20:15.360Z,4.30
2022-10-05T01:23:19.636Z,4.50
2022-10-05T01:26:23.973Z,4.27
2022-10-05T01:29:51.556Z,4.60
2022-10-05T01:33:10.585Z,4.57
2022-10-05T01:36:25.594Z,4.23
2022-10-05T01:40:05.052Z,4.07
2022-10-05T01:43:32.744Z,4.23
2022-10-05T01:46:58.413Z,4.40
2022-10-05T01:50:11.962Z,4.30
2022-10-05T01:53:44.250Z,3.90
2022-10-05T01:57:09.958Z,4.50
2022-10-05T02:00:14.768Z,4.20
2022-10-05T02:03:20.987Z,3.93
2022-10-05T02:06:26.297Z,4.57
2022-10-05T02:09:37.317Z,4.53
2022-10-05T02:12:39.505Z,4.30
2022-10-05T02:15:58.140Z,4.30
2022-10-05T02:19:08.184Z,4.50
2022-10-05T02:22:26.348Z,4.53
2022-10-05T02:25:33.082Z,3.90
2022-10-05T02:28:39.903Z,4.33
2022-10-05T02:31:48.819Z,4.00
2022-10-05T02:34:50.768Z,3.83
2022-10-05T02:38:11.762Z,4.10
2022-10-05T02:41:32.310Z,4.10
2022-10-05T02:45:04.506Z,4.93
2022-10-05T02:48:24.369Z,3.77
2022-10-05T02:51:48.750Z,3.63
2022-10-05T02:55:17.904Z,3.83
2022-10-05T02:58:23.290Z,3.87
2022-10-05T03:01:34.656Z,3.60
2022-10-05T03:04:48.305Z,3.77
2022-10-05T03:08:08.721Z,3.90
2022-10-05T03:11:22.948Z,4.33
2022-10-05T03:14:47.717Z,4.10
2022-10-05T03:18:14.334Z,3.70
2022-10-05T03:21:48.398Z,3.97
2022-10-05T03:24:59.026Z,4.07
2022-10-05T03:28:23.860Z,3.90
2022-10-05T03:31:49.331Z,4.37
2022-10-05T03:34:58.468Z,4.40
2022-10-05T03:38:15.191Z,4.20
2022-10-05T03:41:22.841Z,4.07
2022-10-05T03:44:44.237Z,4.63
2022-10-05T03:48:05.226Z,4.63
2022-10-05T03:51:40.880Z,3.93
2022-10-05T03:54:48.357Z,4.63
2022-10-05T03:57:52.357Z,4.60
2022-10-05T04:01:01.800Z,4.77
2022-10-05T04:04:07.069Z,4.93
2022-10-05T04:07:23.465Z,5.07
2022-10-05T04:10:33.186Z,4.90
2022-10-05T04:13:40.327Z,4.43
2022-10-05T04:16:45.669Z,4.80
2022-10-05T04:19:59.819Z,4.90
2022-10-05T04:23:11.235Z,4.67
2022-10-05T04:26:24.785Z,5.03
2022-10-05T04:29:36.159Z,5.53
2022-10-05T04:32:42.837Z,5.10
2022-10-05T04:35:57.587Z,5.23
2022-10-05T04:39:18.690Z,5.40
2022-10-05T04:42:32.764Z,5.50
2022-10-05T04:46:05.092Z,4.67
2022-10-05T04:49:28.702Z,5.47
2022-10-05T04:53:05.762Z,5.00
2022-10-05T04:56:49.554Z,5.27
2022-10-05T05:00:08.622Z,6.17
2022-10-05T05:03:38.927Z,5.57
2022-10-05T05:06:58.166Z,5.50
2022-10-05T05:10:23.818Z,5.10
2022-10-05T05:13:47.022Z,4.77
2022-10-05T05:17:22.340Z,4.97
2022-10-05T05:20:53.897Z,4.93
2022-10-05T05:24:13.996Z,4.97
2022-10-05T05:27:39.178Z,4.83
2022-10-05T05:31:05.088Z,5.13
2022-10-05T05:34:18.234Z,4.87
2022-10-05T05:37:28.851Z,4.83
2022-10-05T05:40:35.142Z,4.87
2022-10-05T05:44:04.032Z,4.30
2022-10-05T05:47:24.277Z,4.40
2022-10-05T05:50:40.398Z,4.47
2022-10-05T05:53:48.855Z,4.00
2022-10-05T05:57:10.688Z,4.70
2022-10-05T06:00:13.862Z,3.80
2022-10-05T06:03:37.142Z,4.30
2022-10-05T06:06:44.553Z,4.13
2022-10-05T06:09:54.242Z,4.17
2022-10-05T06:13:06.418Z,5.13
2022-10-05T06:16:21.052Z,4.70
2022-10-05T06:19:26.318Z,4.80
2022-10-05T06:22:43.834Z,4.97
2022-10-05T06:26:15.008Z,4.50
2022-10-05T06:29:22.932Z,4.67
2022-10-05T06:32:50.689Z,4.40
2022-10-05T06:36:18.547Z,4.57
2022-10-05T06:39:48.412Z,4.40
2022-10-05T06:43:16.216Z,4.60
2022-10-05T06:46:55.490Z,4.17
2022-10-05T06:50:41.446Z,4.50
2022-10-05T06:54:20.109Z,4.27
2022-10-05T06:57:37.819Z,4.70
2022-10-05T07:00:54.026Z,4.80
2022-10-05T07:04:36.759Z,5.07
2022-10-05T07:07:59.393Z,4.77
2022-10-05T07:11:25.167Z,5.10
2022-10-05T07:14:56.538Z,4.83
2022-10-05T07:18:13.498Z,5.57
2022-10-05T07:21:58.280Z,5.63
2022-10-05T07:25:30.962Z,5.53
2022-10-05T07:28:50.698Z,5.27
2022-10-05T07:32:15.542Z,4.90
2022-10-05T07:35:51.444Z,4.93
2022-10-05T07:39:36.803Z,5.27
2022-10-05T07:43:18.347Z,5.90
2022-10-05T07:46:34.860Z,5.23
2022-10-05T07:49:51.872Z,5.57
2022-10-05T07:52:57.526Z,5.40
2022-10-05T07:56:13.364Z,5.27
2022-10-05T07:59:24.310Z,4.73
2022-10-05T08:02:34.144Z,5.87
2022-10-05T08:05:41.446Z,5.70
2022-10-05T08:09:04.770Z,5.40
2022-10-05T08:12:23.970Z,5.20
2022-10-05T08:15:34.517Z,6.13
2022-10-05T08:18:48.462Z,7.27
2022-10-05T08:22:02.860Z,7.20
2022-10-05T08:25:10.095Z,6.97
2022-10-05T08:28:22.987Z,7.13
2022-10-05T08:31:29.675Z,7.40
2022-10-05T08:34:45.703Z,7.00
2022-10-05T08:37:48.873Z,6.80
2022-10-05T08:41:01.896Z,7.07
2022-10-05T08:44:31.284Z,6.93
2022-10-05T08:48:04.690Z,7.40
2022-10-05T08:51:26.339Z,7.10
2022-10-05T08:54:46.589Z,6.97
2022-10-05T08:58:03.750Z,6.63
2022-10-05T09:01:21.211Z,6.13
2022-10-05T09:05:07.767Z,6.10
2022-10-05T09:08:54.147Z,6.00
2022-10-05T09:12:42.810Z,6.00
2022-10-05T09:16:13.726Z,6.17
2022-10-05T09:19:30.368Z,5.90
2022-10-05T09:22:40.056Z,5.13
2022-10-05T09:26:06.977Z,5.17
2022-10-05T09:29:33.069Z,5.20
2022-10-05T09:32:59.207Z,5.40
2022-10-05T09:36:27.224Z,4.80
2022-10-05T09:40:08.318Z,4.77
2022-10-05T09:43:47.601Z,4.60
2022-10-05T09:47:16.762Z,4.47
2022-10-05T09:50:48.814Z,4.63
2022-10-05T09:54:34.981Z,4.13
2022-10-05T09:57:57.913Z,4.03
2022-10-05T10:01:15.833Z,4.07
2022-10-05T10:04:41.682Z,4.63
2022-10-05T10:08:20.803Z,3.80
2022-10-05T10:11:59.177Z,3.83
2022-10-05T10:15:23.927Z,3.90
2022-10-05T10:18:36.553Z,3.80
2022-10-05T10:21:44.854Z,3.30
2022-10-05T10:25:24.395Z,3.73
2022-10-05T10:29:07.683Z,3.20
2022-10-05T10:32:24.169Z,3.77
2022-10-05T10:35:31.596Z,3.50
2022-10-05T10:38:51.237Z,3.60
2022-10-05T10:42:14.737Z,3.70
2022-10-05T10:45:28.575Z,3.30
2022-10-05T10:48:30.146Z,2.90
2022-10-05T10:51:52.798Z,2.90
2022-10-05T10:55:04.303Z,2.97
2022-10-05T11:01:39.434Z,2.90
2022-10-05T11:05:08.036Z,2.57
2022-10-05T11:08:46.287Z,3.67
2022-10-05T11:12:17.811Z,3.10
2022-10-05T11:15:31.145Z,2.80
2022-10-05T11:19:03.117Z,2.90
2022-10-05T11:22:23.384Z,2.93
2022-10-05T11:25:47.127Z,3.50
2022-10-05T11:29:11.442Z,2.40
2022-10-05T11:32:50.030Z,2.90
2022-10-05T11:36:11.813Z,2.60
2022-10-05T11:39:36.880Z,2.87
2022-10-05T11:43:21.523Z,2.80
2022-10-05T11:46:29.790Z,2.43
2022-10-05T11:49:38.998Z,2.63
2022-10-05T11:52:48.018Z,2.70
2022-10-05T11:56:21.756Z,2.90
2022-10-05T12:00:18.100Z,2.50
2022-10-05T12:03:43.065Z,2.60
2022-10-05T12:07:02.809Z,2.30
2022-10-05T12:10:14.579Z,2.30
2022-10-05T12:13:25.150Z,2.30
2022-10-05T12:16:32.492Z,2.37
2022-10-05T12:20:02.213Z,2.50
2022-10-05T12:23:17.632Z,2.40
2022-10-05T12:26:51.886Z,2.27
2022-10-05T12:30:01.503Z,2.37
2022-10-05T12:33:28.858Z,2.27
2022-10-05T12:37:02.870Z,2.00
2022-10-05T12:40:22.550Z,2.40
2022-10-05T12:43:33.044Z,2.33
2022-10-05T12:46:52.754Z,2.53
2022-10-05T12:50:07.007Z,2.13
2022-10-05T12:53:20.458Z,2.50
2022-10-05T12:56:53.288Z,2.60
2022-10-05T12:59:59.465Z,2.60
2022-10-05T13:03:12.470Z,2.20
2022-10-05T13:06:17.688Z,2.33
2022-10-05T13:09:56.398Z,2.43
2022-10-05T13:13:36.528Z,2.70
2022-10-05T13:16:59.291Z,2.30
2022-10-05T13:20:18.210Z,2.67
2022-10-05T13:23:40.759Z,2.70
2022-10-05T13:26:46.296Z,3.03
2022-10-05T13:29:58.221Z,3.80
2022-10-05T13:33:07.248Z,3.40
2022-10-05T13:36:23.695Z,2.80
2022-10-05T13:39:31.086Z,2.40
2022-10-05T13:42:55.180Z,2.60
2022-10-05T13:46:25.660Z,2.33
2022-10-05T13:49:36.242Z,2.17
2022-10-05T13:52:56.552Z,2.30
2022-10-05T13:56:25.155Z,2.40
2022-10-05T13:59:26.477Z,2.53
2022-10-05T14:02:38.538Z,2.20
2022-10-05T14:05:55.880Z,2.30
2022-10-05T14:09:00.679Z,2.30
2022-10-05T14:12:05.025Z,2.60
2022-10-05T14:15:28.397Z,2.20
2022-10-05T14:18:31.782Z,2.10
2022-10-05T14:21:47.158Z,2.10
2022-10-05T14:24:54.297Z,2.40
2022-10-05T14:28:19.331Z,2.40
2022-10-05T14:31:28.659Z,2.40
2022-10-05T14:34:35.850Z,2.30
2022-10-05T14:37:52.890Z,2.30
2022-10-05T14:41:05.104Z,2.60
2022-10-05T14:44:09.711Z,2.10
2022-10-05T14:47:23.173Z,2.20
2022-10-05T14:50:26.308Z,2.37
2022-10-05T14:53:43.560Z,2.33
2022-10-05T14:56:54.239Z,2.17
2022-10-05T15:00:03.977Z,2.10
2022-10-05T15:03:09.605Z,2.30
2022-10-05T15:06:37.671Z,2.13
2022-10-05T15:09:44.786Z,2.50
2022-10-05T15:12:48.318Z,2.07
2022-10-05T15:15:59.926Z,1.80
2022-10-05T15:19:16.154Z,2.37
2022-10-05T15:22:31.580Z,2.37
2022-10-05T15:25:46.687Z,2.37
2022-10-05T15:28:54.308Z,2.33
2022-10-05T15:32:15.661Z,2.37
2022-10-05T15:35:45.531Z,2.23
2022-10-05T15:39:10.618Z,2.33
2022-10-05T15:42:16.152Z,2.97
2022-10-05T15:45:20.638Z,2.47
2022-10-05T15:48:35.753Z,2.30
2022-10-05T15:52:18.486Z,2.43
2022-10-05T15:55:42.151Z,2.47
2022-10-05T15:59:30.412Z,2.47
2022-10-05T16:02:54.963Z,2.30
2022-10-05T16:06:18.055Z,2.50
2022-10-05T16:09:38.164Z,2.73
2022-10-05T16:13:07.689Z,2.43
2022-10-05T16:16:34.023Z,2.30
2022-10-05T16:19:59.585Z,2.23
2022-10-05T16:23:12.390Z,2.60
2022-10-05T16:26:43.036Z,2.40
2022-10-05T16:30:16.696Z,2.60
2022-10-05T16:33:46.751Z,2.30
2022-10-05T16:36:54.285Z,2.20
2022-10-05T16:40:02.623Z,2.40
2022-10-05T16:43:22.938Z,2.20
2022-10-05T16:46:38.178Z,2.30
2022-10-05T16:50:09.077Z,2.33
2022-10-05T16:53:19.025Z,2.47
2022-10-05T16:56:27.015Z,2.50
2022-10-05T16:59:47.214Z,2.43
2022-10-05T17:03:12.735Z,2.70
2022-10-05T17:06:34.277Z,3.13
2022-10-05T17:09:49.457Z,3.30
2022-10-05T17:13:02.979Z,3.13
2022-10-05T17:16:46.756Z,3.30
2022-10-05T17:20:06.950Z,3.30
2022-10-05T17:23:42.588Z,3.63
2022-10-05T17:26:57.338Z,3.40
2022-10-05T17:30:31.478Z,3.03
2022-10-05T17:33:34.377Z,3.17
2022-10-05T17:36:57.705Z,3.47
2022-10-05T17:39:59.232Z,3.40
2022-10-05T17:43:16.281Z,3.40
2022-10-05T17:46:38.119Z,3.93
2022-10-05T17:50:16.351Z,3.67
2022-10-05T17:53:52.887Z,4.00
2022-10-05T17:57:24.607Z,4.57
2022-10-05T18:00:32.072Z,4.23
2022-10-05T18:03:51.334Z,5.27
2022-10-05T18:06:55.665Z,3.83
2022-10-05T18:10:20.048Z,4.50
2022-10-05T18:13:49.954Z,4.27
2022-10-05T18:17:11.582Z,5.33
2022-10-05T18:20:28.539Z,6.47
2022-10-05T18:23:35.239Z,8.23
2022-10-05T18:26:45.073Z,6.63
2022-10-05T18:30:05.188Z,5.87
2022-10-05T18:33:29.708Z,5.90
2022-10-05T18:37:03.610Z,6.40
2022-10-05T18:40:31.600Z,6.67
2022-10-05T18:43:37.314Z,6.53
2022-10-05T18:47:03.336Z,7.03
2022-10-05T18:50:21.411Z,7.03
2022-10-05T18:53:38.420Z,6.90
2022-10-05T18:56:49.921Z,6.63
2022-10-05T19:00:07.087Z,6.23
2022-10-05T19:03:23.445Z,5.97
2022-10-05T19:06:39.561Z,6.10
2022-10-05T19:10:17.866Z,5.93
2022-10-05T19:13:50.865Z,6.10
2022-10-05T19:17:07.037Z,6.27
2022-10-05T19:20:27.850Z,5.77
2022-10-05T19:23:44.694Z,6.53
2022-10-05T19:27:01.411Z,6.97
2022-10-05T19:30:17.916Z,7.53
2022-10-05T19:33:50.034Z,7.50
2022-10-05T19:37:14.584Z,7.80
2022-10-05T19:40:40.967Z,8.57
2022-10-05T19:43:56.669Z,8.20
2022-10-05T19:47:29.381Z,8.43
2022-10-05T19:50:33.710Z,7.83
2022-10-05T19:53:46.712Z,8.33
2022-10-05T19:56:52.702Z,9.03
2022-10-05T19:59:57.849Z,8.80
2022-10-05T20:03:14.334Z,9.30
2022-10-05T20:06:15.885Z,9.87
2022-10-05T20:09:22.254Z,9.23
2022-10-05T20:12:50.666Z,9.90
2022-10-05T20:16:35.930Z,9.37
2022-10-05T20:19:57.450Z,8.47
2022-10-05T20:23:18.185Z,8.10
2022-10-05T20:27:02.574Z,8.03
2022-10-05T20:30:05.942Z,7.50
2022-10-05T20:33:11.537Z,6.63
2022-10-05T20:36:13.083Z,6.47
2022-10-05T20:39:16.732Z,6.07
2022-10-05T20:42:19.262Z,5.97
2022-10-05T20:45:21.115Z,5.60
2022-10-05T20:48:22.501Z,6.37
2022-10-05T20:51:24.515Z,5.93
2022-10-05T20:54:26.711Z,5.07
2022-10-05T20:57:28.110Z,4.70
2022-10-05T21:00:49.563Z,5.43
2022-10-05T21:03:50.981Z,4.60
2022-10-05T21:06:53.525Z,5.10
2022-10-05T21:09:55.624Z,5.47
2022-10-05T21:12:57.022Z,6.43
2022-10-05T21:15:58.455Z,7.30
2022-10-05T21:18:59.857Z,6.07
2022-10-05T21:22:02.368Z,5.97
2022-10-05T21:25:04.087Z,7.87
2022-10-05T21:28:06.299Z,7.70
2022-10-05T21:31:08.916Z,6.90
2022-10-05T21:34:10.400Z,7.03
2022-10-05T21:37:11.921Z,6.43
2022-10-05T21:40:13.367Z,6.63
2022-10-05T21:43:14.838Z,5.13
2022-10-05T21:46:22.808Z,5.10
2022-10-05T21:49:25.754Z,5.00
2022-10-05T21:52:27.141Z,4.80
2022-10-05T21:55:28.841Z,4.27
2022-10-05T21:58:31.129Z,4.87
2022-10-05T22:01:35.913Z,5.27
2022-10-05T22:04:37.397Z,4.83
2022-10-05T22:07:38.785Z,4.60
2022-10-05T22:10:40.189Z,4.10
2022-10-05T22:13:47.604Z,4.13
2022-10-05T22:16:49.398Z,4.43
2022-10-05T22:19:51.343Z,3.63
2022-10-05T22:22:53.850Z,4.17
2022-10-05T22:25:55.289Z,3.90
2022-10-05T22:28:56.990Z,3.70
2022-10-05T22:31:58.420Z,3.90
2022-10-05T22:34:59.892Z,4.20
2022-10-05T22:38:02.881Z,3.90
2022-10-05T22:41:04.305Z,3.87
2022-10-05T22:44:06.667Z,3.67
2022-10-05T22:47:08.124Z,4.60
2022-10-05T22:50:09.726Z,3.93
2022-10-05T22:53:12.277Z,3.83
2022-10-05T22:56:13.959Z,3.50
2022-10-05T22:59:15.378Z,4.23
2022-10-05T23:02:18.562Z,4.10
2022-10-05T23:05:19.984Z,3.63
2022-10-05T23:08:21.368Z,4.13
2022-10-05T23:11:25.856Z,4.00
2022-10-05T23:14:29.203Z,3.60
2022-10-05T23:17:33.392Z,3.80
2022-10-05T23:20:34.873Z,4.20
2022-10-05T23:23:38.115Z,4.10
2022-10-05T23:26:39.504Z,3.97
2022-10-05T23:29:40.905Z,4.10
2022-10-05T23:32:44.056Z,4.37
2022-10-05T23:35:45.500Z,4.00
2022-10-05T23:38:47.797Z,4.70
2022-10-05T23:41:49.181Z,3.90
2022-10-05T23:44:50.877Z,4.03
2022-10-05T23:47:52.325Z,4.17
2022-10-05T23:50:55.607Z,4.10
2022-10-05T23:53:57.003Z,4.20
2022-10-05T23:56:58.394Z,3.77
